sensor_id;sensor_type;location;lat;lon;timestamp;temperature;humidity
306;DHT22;137;48.578;9.180;2022-09-09T00:00:20;14.70;98.20
306;DHT22;137;48.578;9.180;2022-09-09T00:02:53;14.70;98.20
306;DHT22;137;48.578;9.180;2022-09-09T00:05:27;14.80;98.20
306;DHT22;137;48.578;9.180;2022-09-09T00:07:59;14.80;98.20
306;DHT22;137;48.578;9.180;2022-09-09T00:10:32;14.80;98.20
306;DHT22;137;48.578;9.180;2022-09-09T00:13:06;14.90;98.20
306;DHT22;137;48.578;9.180;2022-09-09T00:15:40;14.90;98.20
306;DHT22;137;48.578;9.180;2022-09-09T00:18:17;14.90;98.20
306;DHT22;137;48.578;9.180;2022-09-09T00:20:53;15.00;98.20
306;DHT22;137;48.578;9.180;2022-09-09T00:23:25;15.00;98.20
306;DHT22;137;48.578;9.180;2022-09-09T00:25:59;15.00;98.20
306;DHT22;137;48.578;9.180;2022-09-09T00:28:29;15.10;98.20
306;DHT22;137;48.578;9.180;2022-09-09T00:31:00;15.10;98.20
306;DHT22;137;48.578;9.180;2022-09-09T00:33:34;15.10;98.20
306;DHT22;137;48.578;9.180;2022-09-09T00:36:01;15.20;98.20
306;DHT22;137;48.578;9.180;2022-09-09T00:38:32;15.20;98.20
306;DHT22;137;48.578;9.180;2022-09-09T00:41:03;15.20;98.20
306;DHT22;137;48.578;9.180;2022-09-09T00:43:35;15.20;98.20
306;DHT22;137;48.578;9.180;2022-09-09T00:46:27;15.20;98.20
306;DHT22;137;48.578;9.180;2022-09-09T00:49:04;15.20;98.20
306;DHT22;137;48.578;9.180;2022-09-09T00:51:43;15.20;98.20
306;DHT22;137;48.578;9.180;2022-09-09T00:54:28;15.10;98.20
306;DHT22;137;48.578;9.180;2022-09-09T00:57:10;15.20;98.20
306;DHT22;137;48.578;9.180;2022-09-09T00:59:45;15.20;98.20
306;DHT22;137;48.578;9.180;2022-09-09T01:02:25;15.10;98.20
306;DHT22;137;48.578;9.180;2022-09-09T01:04:53;15.10;98.20
306;DHT22;137;48.578;9.180;2022-09-09T01:07:20;15.10;98.20
306;DHT22;137;48.578;9.180;2022-09-09T01:09:56;15.10;98.20
306;DHT22;137;48.578;9.180;2022-09-09T01:12:34;15.00;98.20
306;DHT22;137;48.578;9.180;2022-09-09T01:15:09;15.00;98.20
306;DHT22;137;48.578;9.180;2022-09-09T01:17:46;15.00;98.20
306;DHT22;137;48.578;9.180;2022-09-09T01:20:17;15.00;98.20
306;DHT22;137;48.578;9.180;2022-09-09T01:22:58;14.90;98.20
306;DHT22;137;48.578;9.180;2022-09-09T01:28:22;14.90;98.20
306;DHT22;137;48.578;9.180;2022-09-09T01:30:51;14.80;98.20
306;DHT22;137;48.578;9.180;2022-09-09T01:33:19;14.80;98.20
306;DHT22;137;48.578;9.180;2022-09-09T01:35:50;14.80;98.20
306;DHT22;137;48.578;9.180;2022-09-09T01:38:20;14.70;98.20
306;DHT22;137;48.578;9.180;2022-09-09T01:40:47;14.80;98.20
306;DHT22;137;48.578;9.180;2022-09-09T01:43:14;14.80;98.20
306;DHT22;137;48.578;9.180;2022-09-09T01:45:44;14.80;98.20
306;DHT22;137;48.578;9.180;2022-09-09T01:48:13;14.80;98.20
306;DHT22;137;48.578;9.180;2022-09-09T01:50:39;14.80;98.20
306;DHT22;137;48.578;9.180;2022-09-09T01:53:07;14.80;98.20
306;DHT22;137;48.578;9.180;2022-09-09T01:55:40;14.80;98.20
306;DHT22;137;48.578;9.180;2022-09-09T01:58:20;14.80;98.20
306;DHT22;137;48.578;9.180;2022-09-09T02:00:59;14.70;98.20
306;DHT22;137;48.578;9.180;2022-09-09T02:03:28;14.70;98.20
306;DHT22;137;48.578;9.180;2022-09-09T02:06:02;14.70;98.20
306;DHT22;137;48.578;9.180;2022-09-09T02:08:36;14.70;98.20
306;DHT22;137;48.578;9.180;2022-09-09T02:11:07;14.70;98.20
306;DHT22;137;48.578;9.180;2022-09-09T02:13:38;14.80;98.20
306;DHT22;137;48.578;9.180;2022-09-09T02:16:10;14.80;98.20
306;DHT22;137;48.578;9.180;2022-09-09T02:18:42;14.80;98.20
306;DHT22;137;48.578;9.180;2022-09-09T02:21:11;14.90;98.20
306;DHT22;137;48.578;9.180;2022-09-09T02:23:40;14.90;98.20
306;DHT22;137;48.578;9.180;2022-09-09T02:26:09;14.90;98.20
306;DHT22;137;48.578;9.180;2022-09-09T02:28:39;14.90;98.20
306;DHT22;137;48.578;9.180;2022-09-09T02:31:08;14.90;98.20
306;DHT22;137;48.578;9.180;2022-09-09T02:33:39;14.90;98.20
306;DHT22;137;48.578;9.180;2022-09-09T02:36:08;14.80;98.20
306;DHT22;137;48.578;9.180;2022-09-09T02:38:40;14.80;98.20
306;DHT22;137;48.578;9.180;2022-09-09T02:41:09;14.70;98.20
306;DHT22;137;48.578;9.180;2022-09-09T02:43:36;14.70;98.20
306;DHT22;137;48.578;9.180;2022-09-09T02:46:11;14.70;98.20
306;DHT22;137;48.578;9.180;2022-09-09T02:48:47;14.70;98.20
306;DHT22;137;48.578;9.180;2022-09-09T02:51:23;14.70;98.20
306;DHT22;137;48.578;9.180;2022-09-09T02:53:59;14.60;98.20
306;DHT22;137;48.578;9.180;2022-09-09T02:56:32;14.50;98.20
306;DHT22;137;48.578;9.180;2022-09-09T02:59:03;14.40;98.20
306;DHT22;137;48.578;9.180;2022-09-09T03:01:32;14.30;98.20
306;DHT22;137;48.578;9.180;2022-09-09T03:03:59;14.30;98.20
306;DHT22;137;48.578;9.180;2022-09-09T03:06:25;14.30;98.20
306;DHT22;137;48.578;9.180;2022-09-09T03:08:53;14.30;98.20
306;DHT22;137;48.578;9.180;2022-09-09T03:11:19;14.20;98.20
306;DHT22;137;48.578;9.180;2022-09-09T03:13:46;14.20;98.20
306;DHT22;137;48.578;9.180;2022-09-09T03:16:14;14.20;98.20
306;DHT22;137;48.578;9.180;2022-09-09T03:18:42;14.10;98.20
306;DHT22;137;48.578;9.180;2022-09-09T03:21:10;14.10;98.20
306;DHT22;137;48.578;9.180;2022-09-09T03:23:37;14.10;98.20
306;DHT22;137;48.578;9.180;2022-09-09T03:26:04;14.00;98.20
306;DHT22;137;48.578;9.180;2022-09-09T03:28:30;14.00;98.20
306;DHT22;137;48.578;9.180;2022-09-09T03:31:00;14.00;98.20
306;DHT22;137;48.578;9.180;2022-09-09T03:33:27;14.00;98.20
306;DHT22;137;48.578;9.180;2022-09-09T03:35:56;14.00;98.20
306;DHT22;137;48.578;9.180;2022-09-09T03:38:23;13.90;98.20
306;DHT22;137;48.578;9.180;2022-09-09T03:40:51;13.90;98.20
306;DHT22;137;48.578;9.180;2022-09-09T03:43:20;14.00;98.20
306;DHT22;137;48.578;9.180;2022-09-09T03:45:47;14.10;98.20
306;DHT22;137;48.578;9.180;2022-09-09T03:48:15;14.10;98.20
306;DHT22;137;48.578;9.180;2022-09-09T03:50:44;14.10;98.20
306;DHT22;137;48.578;9.180;2022-09-09T03:53:14;14.10;98.20
306;DHT22;137;48.578;9.180;2022-09-09T03:55:43;14.10;98.20
306;DHT22;137;48.578;9.180;2022-09-09T03:58:11;14.10;98.20
306;DHT22;137;48.578;9.180;2022-09-09T04:00:38;14.00;98.20
306;DHT22;137;48.578;9.180;2022-09-09T04:03:08;14.00;98.20
306;DHT22;137;48.578;9.180;2022-09-09T04:05:35;13.90;98.20
306;DHT22;137;48.578;9.180;2022-09-09T04:08:05;14.00;98.20
306;DHT22;137;48.578;9.180;2022-09-09T04:10:33;14.10;98.20
306;DHT22;137;48.578;9.180;2022-09-09T04:13:02;14.10;98.20
306;DHT22;137;48.578;9.180;2022-09-09T04:15:29;14.10;98.20
306;DHT22;137;48.578;9.180;2022-09-09T04:17:56;14.10;98.20
306;DHT22;137;48.578;9.180;2022-09-09T04:20:23;14.10;98.20
306;DHT22;137;48.578;9.180;2022-09-09T04:22:50;14.00;98.20
306;DHT22;137;48.578;9.180;2022-09-09T04:25:17;14.00;98.20
306;DHT22;137;48.578;9.180;2022-09-09T04:27:45;14.00;98.20
306;DHT22;137;48.578;9.180;2022-09-09T04:30:13;14.00;98.20
306;DHT22;137;48.578;9.180;2022-09-09T04:32:39;14.10;98.20
306;DHT22;137;48.578;9.180;2022-09-09T04:35:07;14.10;98.20
306;DHT22;137;48.578;9.180;2022-09-09T04:37:34;14.20;98.20
306;DHT22;137;48.578;9.180;2022-09-09T04:40:01;14.20;98.20
306;DHT22;137;48.578;9.180;2022-09-09T04:42:28;14.20;98.20
306;DHT22;137;48.578;9.180;2022-09-09T04:44:56;14.20;98.20
306;DHT22;137;48.578;9.180;2022-09-09T04:47:23;14.30;98.20
306;DHT22;137;48.578;9.180;2022-09-09T04:49:50;14.30;98.20
306;DHT22;137;48.578;9.180;2022-09-09T04:52:17;14.40;98.20
306;DHT22;137;48.578;9.180;2022-09-09T04:54:43;14.50;98.20
306;DHT22;137;48.578;9.180;2022-09-09T04:57:11;14.50;98.20
306;DHT22;137;48.578;9.180;2022-09-09T04:59:38;14.60;98.20
306;DHT22;137;48.578;9.180;2022-09-09T05:02:07;14.50;98.20
306;DHT22;137;48.578;9.180;2022-09-09T05:04:33;14.50;98.20
306;DHT22;137;48.578;9.180;2022-09-09T05:07:00;14.50;98.20
306;DHT22;137;48.578;9.180;2022-09-09T05:09:27;14.40;98.20
306;DHT22;137;48.578;9.180;2022-09-09T05:11:54;14.40;98.20
306;DHT22;137;48.578;9.180;2022-09-09T05:14:21;14.40;98.20
306;DHT22;137;48.578;9.180;2022-09-09T05:16:48;14.40;98.20
306;DHT22;137;48.578;9.180;2022-09-09T05:19:16;14.40;98.20
306;DHT22;137;48.578;9.180;2022-09-09T05:21:45;14.50;98.20
306;DHT22;137;48.578;9.180;2022-09-09T05:24:12;14.60;98.20
306;DHT22;137;48.578;9.180;2022-09-09T05:26:39;14.70;98.20
306;DHT22;137;48.578;9.180;2022-09-09T05:29:05;14.80;98.20
306;DHT22;137;48.578;9.180;2022-09-09T05:31:34;15.00;98.20
306;DHT22;137;48.578;9.180;2022-09-09T05:34:00;15.30;98.20
306;DHT22;137;48.578;9.180;2022-09-09T05:36:28;15.40;98.20
306;DHT22;137;48.578;9.180;2022-09-09T05:38:55;15.60;98.20
306;DHT22;137;48.578;9.180;2022-09-09T05:41:22;15.60;98.20
306;DHT22;137;48.578;9.180;2022-09-09T05:43:49;15.60;98.20
306;DHT22;137;48.578;9.180;2022-09-09T05:46:18;15.70;98.20
306;DHT22;137;48.578;9.180;2022-09-09T05:48:45;15.70;98.20
306;DHT22;137;48.578;9.180;2022-09-09T05:51:14;15.70;98.20
306;DHT22;137;48.578;9.180;2022-09-09T05:53:44;15.80;98.20
306;DHT22;137;48.578;9.180;2022-09-09T05:56:13;15.80;98.20
306;DHT22;137;48.578;9.180;2022-09-09T05:58:41;15.90;98.20
306;DHT22;137;48.578;9.180;2022-09-09T06:01:11;16.00;98.20
306;DHT22;137;48.578;9.180;2022-09-09T06:03:40;16.00;98.20
306;DHT22;137;48.578;9.180;2022-09-09T06:06:08;16.20;98.20
306;DHT22;137;48.578;9.180;2022-09-09T06:08:36;16.30;98.20
306;DHT22;137;48.578;9.180;2022-09-09T06:11:07;16.30;98.20
306;DHT22;137;48.578;9.180;2022-09-09T06:13:34;16.30;98.20
306;DHT22;137;48.578;9.180;2022-09-09T06:16:03;16.40;98.20
306;DHT22;137;48.578;9.180;2022-09-09T06:18:30;16.50;98.20
306;DHT22;137;48.578;9.180;2022-09-09T06:20:58;16.60;98.20
306;DHT22;137;48.578;9.180;2022-09-09T06:23:26;16.60;98.20
306;DHT22;137;48.578;9.180;2022-09-09T06:26:05;16.70;98.20
306;DHT22;137;48.578;9.180;2022-09-09T06:28:33;16.80;98.20
306;DHT22;137;48.578;9.180;2022-09-09T06:31:02;16.90;98.20
306;DHT22;137;48.578;9.180;2022-09-09T06:33:31;16.90;98.20
306;DHT22;137;48.578;9.180;2022-09-09T06:36:00;17.00;98.20
306;DHT22;137;48.578;9.180;2022-09-09T06:38:27;17.10;98.20
306;DHT22;137;48.578;9.180;2022-09-09T06:40:55;17.20;98.20
306;DHT22;137;48.578;9.180;2022-09-09T06:43:24;17.40;98.20
306;DHT22;137;48.578;9.180;2022-09-09T06:45:56;17.60;98.20
306;DHT22;137;48.578;9.180;2022-09-09T06:48:23;17.80;98.20
306;DHT22;137;48.578;9.180;2022-09-09T06:50:51;17.90;98.20
306;DHT22;137;48.578;9.180;2022-09-09T06:53:18;17.90;98.20
306;DHT22;137;48.578;9.180;2022-09-09T06:55:45;18.00;98.20
306;DHT22;137;48.578;9.180;2022-09-09T06:58:12;18.00;98.20
306;DHT22;137;48.578;9.180;2022-09-09T07:00:40;18.30;98.20
306;DHT22;137;48.578;9.180;2022-09-09T07:03:07;18.40;98.20
306;DHT22;137;48.578;9.180;2022-09-09T07:05:34;18.60;98.20
306;DHT22;137;48.578;9.180;2022-09-09T07:08:01;18.80;98.20
306;DHT22;137;48.578;9.180;2022-09-09T07:10:28;18.80;98.20
306;DHT22;137;48.578;9.180;2022-09-09T07:12:55;18.90;98.20
306;DHT22;137;48.578;9.180;2022-09-09T07:15:21;19.20;98.20
306;DHT22;137;48.578;9.180;2022-09-09T07:17:50;19.10;98.20
306;DHT22;137;48.578;9.180;2022-09-09T07:20:18;19.30;98.20
306;DHT22;137;48.578;9.180;2022-09-09T07:22:45;19.50;98.20
306;DHT22;137;48.578;9.180;2022-09-09T07:25:12;19.60;98.20
306;DHT22;137;48.578;9.180;2022-09-09T07:27:39;19.60;98.20
306;DHT22;137;48.578;9.180;2022-09-09T07:30:07;19.60;98.20
306;DHT22;137;48.578;9.180;2022-09-09T07:32:34;19.70;98.20
306;DHT22;137;48.578;9.180;2022-09-09T07:35:03;19.80;98.20
306;DHT22;137;48.578;9.180;2022-09-09T07:37:30;19.80;98.20
306;DHT22;137;48.578;9.180;2022-09-09T07:39:56;19.70;98.20
306;DHT22;137;48.578;9.180;2022-09-09T07:42:24;19.30;98.20
306;DHT22;137;48.578;9.180;2022-09-09T07:44:51;19.10;98.20
306;DHT22;137;48.578;9.180;2022-09-09T07:47:20;19.30;98.20
306;DHT22;137;48.578;9.180;2022-09-09T07:49:47;19.40;98.20
306;DHT22;137;48.578;9.180;2022-09-09T07:52:16;19.40;98.20
306;DHT22;137;48.578;9.180;2022-09-09T07:54:45;19.40;98.20
306;DHT22;137;48.578;9.180;2022-09-09T07:57:12;19.40;98.20
306;DHT22;137;48.578;9.180;2022-09-09T07:59:39;19.50;98.20
306;DHT22;137;48.578;9.180;2022-09-09T08:02:06;19.60;98.20
306;DHT22;137;48.578;9.180;2022-09-09T08:04:32;19.60;98.20
306;DHT22;137;48.578;9.180;2022-09-09T08:07:00;19.60;98.20
306;DHT22;137;48.578;9.180;2022-09-09T08:09:29;19.50;98.20
306;DHT22;137;48.578;9.180;2022-09-09T08:11:58;19.70;98.20
306;DHT22;137;48.578;9.180;2022-09-09T08:14:25;19.70;98.20
306;DHT22;137;48.578;9.180;2022-09-09T08:16:52;19.80;98.20
306;DHT22;137;48.578;9.180;2022-09-09T08:19:19;19.90;98.20
306;DHT22;137;48.578;9.180;2022-09-09T08:21:46;19.80;98.20
306;DHT22;137;48.578;9.180;2022-09-09T08:24:14;19.60;98.20
306;DHT22;137;48.578;9.180;2022-09-09T08:26:45;19.60;98.20
306;DHT22;137;48.578;9.180;2022-09-09T08:29:13;19.60;98.20
306;DHT22;137;48.578;9.180;2022-09-09T08:31:42;20.00;98.20
306;DHT22;137;48.578;9.180;2022-09-09T08:34:09;20.30;98.20
306;DHT22;137;48.578;9.180;2022-09-09T08:36:38;20.80;98.20
306;DHT22;137;48.578;9.180;2022-09-09T08:39:06;20.80;98.20
306;DHT22;137;48.578;9.180;2022-09-09T08:44:45;20.90;98.20
306;DHT22;137;48.578;9.180;2022-09-09T08:47:21;21.80;98.20
306;DHT22;137;48.578;9.180;2022-09-09T08:50:05;22.30;98.20
306;DHT22;137;48.578;9.180;2022-09-09T08:52:38;22.70;98.20
306;DHT22;137;48.578;9.180;2022-09-09T08:55:15;22.60;98.20
306;DHT22;137;48.578;9.180;2022-09-09T08:57:49;22.30;98.20
306;DHT22;137;48.578;9.180;2022-09-09T09:00:17;22.00;98.20
306;DHT22;137;48.578;9.180;2022-09-09T09:02:48;21.90;98.20
306;DHT22;137;48.578;9.180;2022-09-09T09:05:27;22.10;98.20
306;DHT22;137;48.578;9.180;2022-09-09T09:08:03;22.20;98.20
306;DHT22;137;48.578;9.180;2022-09-09T09:10:40;22.10;98.20
306;DHT22;137;48.578;9.180;2022-09-09T09:13:14;22.00;98.20
306;DHT22;137;48.578;9.180;2022-09-09T09:15:42;22.30;98.20
306;DHT22;137;48.578;9.180;2022-09-09T09:18:12;22.60;98.20
306;DHT22;137;48.578;9.180;2022-09-09T09:20:50;23.00;98.20
306;DHT22;137;48.578;9.180;2022-09-09T09:23:22;23.30;98.20
306;DHT22;137;48.578;9.180;2022-09-09T09:25:50;23.50;98.20
306;DHT22;137;48.578;9.180;2022-09-09T09:28:23;23.50;98.20
306;DHT22;137;48.578;9.180;2022-09-09T09:30:56;23.60;98.20
306;DHT22;137;48.578;9.180;2022-09-09T09:33:26;23.80;98.20
306;DHT22;137;48.578;9.180;2022-09-09T09:35:55;23.90;98.20
306;DHT22;137;48.578;9.180;2022-09-09T09:38:24;24.10;98.20
306;DHT22;137;48.578;9.180;2022-09-09T09:40:52;23.70;98.20
306;DHT22;137;48.578;9.180;2022-09-09T09:43:24;23.70;98.20
306;DHT22;137;48.578;9.180;2022-09-09T09:45:52;23.90;98.20
306;DHT22;137;48.578;9.180;2022-09-09T09:48:18;24.20;98.20
306;DHT22;137;48.578;9.180;2022-09-09T09:50:51;24.30;98.20
306;DHT22;137;48.578;9.180;2022-09-09T09:53:25;24.60;98.20
306;DHT22;137;48.578;9.180;2022-09-09T09:55:58;25.10;98.20
306;DHT22;137;48.578;9.180;2022-09-09T09:58:30;24.80;98.20
306;DHT22;137;48.578;9.180;2022-09-09T10:00:57;24.20;98.20
306;DHT22;137;48.578;9.180;2022-09-09T10:03:27;24.30;98.20
306;DHT22;137;48.578;9.180;2022-09-09T10:05:54;24.40;98.20
306;DHT22;137;48.578;9.180;2022-09-09T10:08:24;24.70;98.20
306;DHT22;137;48.578;9.180;2022-09-09T10:11:12;25.00;98.20
306;DHT22;137;48.578;9.180;2022-09-09T10:13:52;25.40;98.20
306;DHT22;137;48.578;9.180;2022-09-09T10:16:37;25.40;98.20
306;DHT22;137;48.578;9.180;2022-09-09T10:19:12;25.00;98.20
306;DHT22;137;48.578;9.180;2022-09-09T10:21:57;25.00;98.20
306;DHT22;137;48.578;9.180;2022-09-09T10:24:49;24.90;98.20
306;DHT22;137;48.578;9.180;2022-09-09T10:27:21;24.70;98.20
306;DHT22;137;48.578;9.180;2022-09-09T10:30:08;25.10;98.20
306;DHT22;137;48.578;9.180;2022-09-09T10:32:40;25.40;98.20
306;DHT22;137;48.578;9.180;2022-09-09T10:35:17;25.80;98.20
306;DHT22;137;48.578;9.180;2022-09-09T10:40:39;26.30;98.20
306;DHT22;137;48.578;9.180;2022-09-09T10:43:18;26.10;98.20
306;DHT22;137;48.578;9.180;2022-09-09T10:45:56;25.90;98.20
306;DHT22;137;48.578;9.180;2022-09-09T10:48:31;25.80;98.20
306;DHT22;137;48.578;9.180;2022-09-09T10:51:16;25.90;98.20
306;DHT22;137;48.578;9.180;2022-09-09T10:54:06;26.30;98.20
306;DHT22;137;48.578;9.180;2022-09-09T10:56:38;25.90;98.20
306;DHT22;137;48.578;9.180;2022-09-09T10:59:10;25.70;98.20
306;DHT22;137;48.578;9.180;2022-09-09T11:01:43;25.70;98.20
306;DHT22;137;48.578;9.180;2022-09-09T11:04:16;26.00;98.20
306;DHT22;137;48.578;9.180;2022-09-09T11:06:46;26.40;98.20
306;DHT22;137;48.578;9.180;2022-09-09T11:09:18;26.80;98.20
306;DHT22;137;48.578;9.180;2022-09-09T11:11:51;26.50;98.20
306;DHT22;137;48.578;9.180;2022-09-09T11:14:25;26.90;98.20
306;DHT22;137;48.578;9.180;2022-09-09T11:16:58;26.40;98.20
306;DHT22;137;48.578;9.180;2022-09-09T11:19:30;25.70;98.20
306;DHT22;137;48.578;9.180;2022-09-09T11:22:00;24.30;98.20
306;DHT22;137;48.578;9.180;2022-09-09T11:24:33;23.20;98.20
306;DHT22;137;48.578;9.180;2022-09-09T11:27:07;22.40;98.20
306;DHT22;137;48.578;9.180;2022-09-09T11:35:48;20.40;98.20
306;DHT22;137;48.578;9.180;2022-09-09T11:38:24;20.50;98.20
306;DHT22;137;48.578;9.180;2022-09-09T11:40:57;20.40;98.20
306;DHT22;137;48.578;9.180;2022-09-09T11:43:29;20.60;98.20
306;DHT22;137;48.578;9.180;2022-09-09T11:45:58;20.80;98.20
306;DHT22;137;48.578;9.180;2022-09-09T11:48:32;20.90;98.20
306;DHT22;137;48.578;9.180;2022-09-09T11:51:03;20.70;98.20
306;DHT22;137;48.578;9.180;2022-09-09T11:53:31;20.90;98.20
306;DHT22;137;48.578;9.180;2022-09-09T11:56:06;21.50;98.20
306;DHT22;137;48.578;9.180;2022-09-09T11:58:37;22.30;98.20
306;DHT22;137;48.578;9.180;2022-09-09T12:01:26;22.60;98.20
306;DHT22;137;48.578;9.180;2022-09-09T12:04:11;23.00;98.20
306;DHT22;137;48.578;9.180;2022-09-09T12:06:44;23.00;98.20
306;DHT22;137;48.578;9.180;2022-09-09T12:09:22;23.10;98.20
306;DHT22;137;48.578;9.180;2022-09-09T12:11:51;23.00;98.20
306;DHT22;137;48.578;9.180;2022-09-09T12:14:23;22.80;98.20
306;DHT22;137;48.578;9.180;2022-09-09T12:16:50;22.60;98.20
306;DHT22;137;48.578;9.180;2022-09-09T12:19:21;22.30;98.20
306;DHT22;137;48.578;9.180;2022-09-09T12:21:53;22.30;98.20
306;DHT22;137;48.578;9.180;2022-09-09T12:24:27;22.50;98.20
306;DHT22;137;48.578;9.180;2022-09-09T12:27:00;22.60;98.20
306;DHT22;137;48.578;9.180;2022-09-09T12:29:36;22.60;98.20
306;DHT22;137;48.578;9.180;2022-09-09T12:32:07;22.80;98.20
306;DHT22;137;48.578;9.180;2022-09-09T12:34:39;23.30;98.20
306;DHT22;137;48.578;9.180;2022-09-09T12:37:14;23.30;98.20
306;DHT22;137;48.578;9.180;2022-09-09T12:39:45;23.30;98.20
306;DHT22;137;48.578;9.180;2022-09-09T12:42:19;23.60;98.20
306;DHT22;137;48.578;9.180;2022-09-09T12:44:54;23.70;98.20
306;DHT22;137;48.578;9.180;2022-09-09T12:47:29;23.80;98.20
306;DHT22;137;48.578;9.180;2022-09-09T12:50:00;23.40;98.20
306;DHT22;137;48.578;9.180;2022-09-09T12:52:30;23.20;98.20
306;DHT22;137;48.578;9.180;2022-09-09T12:54:59;23.20;98.20
306;DHT22;137;48.578;9.180;2022-09-09T12:57:34;23.40;98.20
306;DHT22;137;48.578;9.180;2022-09-09T13:00:07;23.40;98.20
306;DHT22;137;48.578;9.180;2022-09-09T13:02:45;23.20;98.20
306;DHT22;137;48.578;9.180;2022-09-09T13:05:16;22.40;98.20
306;DHT22;137;48.578;9.180;2022-09-09T13:07:44;22.20;98.20
306;DHT22;137;48.578;9.180;2022-09-09T13:10:12;22.40;98.20
306;DHT22;137;48.578;9.180;2022-09-09T13:12:39;22.50;98.20
306;DHT22;137;48.578;9.180;2022-09-09T13:15:15;22.80;98.20
306;DHT22;137;48.578;9.180;2022-09-09T13:17:50;23.30;98.20
306;DHT22;137;48.578;9.180;2022-09-09T13:20:20;23.60;98.20
306;DHT22;137;48.578;9.180;2022-09-09T13:22:48;23.90;98.20
306;DHT22;137;48.578;9.180;2022-09-09T13:25:20;23.80;98.20
306;DHT22;137;48.578;9.180;2022-09-09T13:28:19;23.90;98.20
306;DHT22;137;48.578;9.180;2022-09-09T13:30:56;23.80;98.20
306;DHT22;137;48.578;9.180;2022-09-09T13:33:29;23.90;98.20
306;DHT22;137;48.578;9.180;2022-09-09T13:36:01;23.70;98.20
306;DHT22;137;48.578;9.180;2022-09-09T13:38:32;23.90;98.20
306;DHT22;137;48.578;9.180;2022-09-09T13:41:01;24.00;98.20
306;DHT22;137;48.578;9.180;2022-09-09T13:43:31;23.80;98.20
306;DHT22;137;48.578;9.180;2022-09-09T13:45:59;23.70;98.20
306;DHT22;137;48.578;9.180;2022-09-09T13:48:27;23.50;98.20
306;DHT22;137;48.578;9.180;2022-09-09T13:51:03;23.20;98.20
306;DHT22;137;48.578;9.180;2022-09-09T13:53:31;22.70;98.20
306;DHT22;137;48.578;9.180;2022-09-09T13:55:58;22.60;98.20
306;DHT22;137;48.578;9.180;2022-09-09T13:58:26;22.90;98.20
306;DHT22;137;48.578;9.180;2022-09-09T14:00:54;22.90;98.20
306;DHT22;137;48.578;9.180;2022-09-09T14:03:21;23.00;98.20
306;DHT22;137;48.578;9.180;2022-09-09T14:05:48;23.30;98.20
306;DHT22;137;48.578;9.180;2022-09-09T14:08:22;23.50;98.20
306;DHT22;137;48.578;9.180;2022-09-09T14:10:50;23.50;98.20
306;DHT22;137;48.578;9.180;2022-09-09T14:13:17;23.80;98.20
306;DHT22;137;48.578;9.180;2022-09-09T14:15:48;23.90;98.20
306;DHT22;137;48.578;9.180;2022-09-09T14:18:15;23.90;98.20
306;DHT22;137;48.578;9.180;2022-09-09T14:20:41;24.00;98.20
306;DHT22;137;48.578;9.180;2022-09-09T14:23:10;23.90;98.20
306;DHT22;137;48.578;9.180;2022-09-09T14:25:43;23.80;98.20
306;DHT22;137;48.578;9.180;2022-09-09T14:28:11;23.60;98.20
306;DHT22;137;48.578;9.180;2022-09-09T14:30:39;23.60;98.20
306;DHT22;137;48.578;9.180;2022-09-09T14:33:07;23.80;98.20
306;DHT22;137;48.578;9.180;2022-09-09T14:35:34;23.90;98.20
306;DHT22;137;48.578;9.180;2022-09-09T14:38:01;23.90;98.20
306;DHT22;137;48.578;9.180;2022-09-09T14:40:28;23.90;98.20
306;DHT22;137;48.578;9.180;2022-09-09T14:42:56;23.70;98.20
306;DHT22;137;48.578;9.180;2022-09-09T14:45:25;23.60;98.20
306;DHT22;137;48.578;9.180;2022-09-09T14:47:52;23.60;98.20
306;DHT22;137;48.578;9.180;2022-09-09T14:50:19;23.60;98.20
306;DHT22;137;48.578;9.180;2022-09-09T14:52:46;23.50;98.20
306;DHT22;137;48.578;9.180;2022-09-09T14:55:14;23.60;98.20
306;DHT22;137;48.578;9.180;2022-09-09T14:57:41;23.30;98.20
306;DHT22;137;48.578;9.180;2022-09-09T15:00:11;23.20;98.20
306;DHT22;137;48.578;9.180;2022-09-09T15:02:38;23.30;98.20
306;DHT22;137;48.578;9.180;2022-09-09T15:05:06;23.20;98.20
306;DHT22;137;48.578;9.180;2022-09-09T15:07:33;23.50;98.20
306;DHT22;137;48.578;9.180;2022-09-09T15:10:01;23.90;98.20
306;DHT22;137;48.578;9.180;2022-09-09T15:12:28;24.10;98.20
306;DHT22;137;48.578;9.180;2022-09-09T15:14:55;24.10;98.20
306;DHT22;137;48.578;9.180;2022-09-09T15:17:24;24.00;98.20
306;DHT22;137;48.578;9.180;2022-09-09T15:19:53;23.90;98.20
306;DHT22;137;48.578;9.180;2022-09-09T15:22:20;23.80;98.20
306;DHT22;137;48.578;9.180;2022-09-09T15:24:47;23.60;98.20
306;DHT22;137;48.578;9.180;2022-09-09T15:27:14;23.70;98.20
306;DHT22;137;48.578;9.180;2022-09-09T15:29:41;23.70;98.20
306;DHT22;137;48.578;9.180;2022-09-09T15:32:09;23.50;98.20
306;DHT22;137;48.578;9.180;2022-09-09T15:34:37;23.00;98.20
306;DHT22;137;48.578;9.180;2022-09-09T15:37:05;22.40;98.20
306;DHT22;137;48.578;9.180;2022-09-09T15:39:32;22.20;98.20
306;DHT22;137;48.578;9.180;2022-09-09T15:41:59;22.10;98.20
306;DHT22;137;48.578;9.180;2022-09-09T15:44:27;22.10;98.20
306;DHT22;137;48.578;9.180;2022-09-09T15:46:54;22.10;98.20
306;DHT22;137;48.578;9.180;2022-09-09T15:49:22;22.10;98.20
306;DHT22;137;48.578;9.180;2022-09-09T15:51:53;21.90;98.20
306;DHT22;137;48.578;9.180;2022-09-09T15:54:21;21.70;98.20
306;DHT22;137;48.578;9.180;2022-09-09T15:56:51;21.60;98.20
306;DHT22;137;48.578;9.180;2022-09-09T15:59:20;21.40;98.20
306;DHT22;137;48.578;9.180;2022-09-09T16:01:47;21.10;98.20
306;DHT22;137;48.578;9.180;2022-09-09T16:04:16;21.10;98.20
306;DHT22;137;48.578;9.180;2022-09-09T16:06:49;21.10;98.20
306;DHT22;137;48.578;9.180;2022-09-09T16:09:18;21.10;98.20
306;DHT22;137;48.578;9.180;2022-09-09T16:11:45;21.00;98.20
306;DHT22;137;48.578;9.180;2022-09-09T16:14:13;20.90;98.20
306;DHT22;137;48.578;9.180;2022-09-09T16:16:41;20.90;98.20
306;DHT22;137;48.578;9.180;2022-09-09T16:19:10;21.00;98.20
306;DHT22;137;48.578;9.180;2022-09-09T16:21:39;21.00;98.20
306;DHT22;137;48.578;9.180;2022-09-09T16:24:09;20.90;98.20
306;DHT22;137;48.578;9.180;2022-09-09T16:26:39;21.00;98.20
306;DHT22;137;48.578;9.180;2022-09-09T16:29:06;21.20;98.20
306;DHT22;137;48.578;9.180;2022-09-09T16:31:34;21.30;98.20
306;DHT22;137;48.578;9.180;2022-09-09T16:34:01;21.20;98.20
306;DHT22;137;48.578;9.180;2022-09-09T16:36:31;21.20;98.20
306;DHT22;137;48.578;9.180;2022-09-09T16:39:01;21.10;98.20
306;DHT22;137;48.578;9.180;2022-09-09T16:41:29;21.00;98.20
306;DHT22;137;48.578;9.180;2022-09-09T16:43:58;21.00;98.20
306;DHT22;137;48.578;9.180;2022-09-09T16:46:27;20.90;98.20
306;DHT22;137;48.578;9.180;2022-09-09T16:48:56;20.80;98.20
306;DHT22;137;48.578;9.180;2022-09-09T16:51:25;20.70;98.20
306;DHT22;137;48.578;9.180;2022-09-09T16:53:53;20.60;98.20
306;DHT22;137;48.578;9.180;2022-09-09T16:56:22;20.60;98.20
306;DHT22;137;48.578;9.180;2022-09-09T16:58:51;20.60;98.20
306;DHT22;137;48.578;9.180;2022-09-09T17:01:22;20.40;98.20
306;DHT22;137;48.578;9.180;2022-09-09T17:03:52;20.20;98.20
306;DHT22;137;48.578;9.180;2022-09-09T17:06:19;20.10;98.20
306;DHT22;137;48.578;9.180;2022-09-09T17:08:46;20.10;98.20